sensor_id;sensor_type;location;lat;lon;timestamp;temperature;humidity
41630;DHT22;27322;49.488;8.480;2023-04-01T00:01:25;12.00;99.90
41630;DHT22;27322;49.488;8.480;2023-04-01T00:03:51;12.00;99.90
41630;DHT22;27322;49.488;8.480;2023-04-01T00:06:18;12.00;99.90
41630;DHT22;27322;49.488;8.480;2023-04-01T00:08:44;12.00;99.90
41630;DHT22;27322;49.488;8.480;2023-04-01T00:11:10;12.00;99.90
41630;DHT22;27322;49.488;8.480;2023-04-01T00:13:36;12.00;99.90
41630;DHT22;27322;49.488;8.480;2023-04-01T00:16:01;12.00;99.90
41630;DHT22;27322;49.488;8.480;2023-04-01T00:18:28;11.90;99.90
41630;DHT22;27322;49.488;8.480;2023-04-01T00:20:54;11.90;99.90
41630;DHT22;27322;49.488;8.480;2023-04-01T00:23:20;11.90;99.90
41630;DHT22;27322;49.488;8.480;2023-04-01T00:25:46;11.90;99.90
41630;DHT22;27322;49.488;8.480;2023-04-01T00:28:14;11.90;99.90
41630;DHT22;27322;49.488;8.480;2023-04-01T00:30:40;11.90;99.90
41630;DHT22;27322;49.488;8.480;2023-04-01T00:33:06;11.90;99.90
41630;DHT22;27322;49.488;8.480;2023-04-01T00:35:32;11.90;99.90
41630;DHT22;27322;49.488;8.480;2023-04-01T00:37:58;11.90;99.90
41630;DHT22;27322;49.488;8.480;2023-04-01T00:40:31;11.90;99.90
41630;DHT22;27322;49.488;8.480;2023-04-01T00:42:58;11.90;99.90
41630;DHT22;27322;49.488;8.480;2023-04-01T00:45:33;11.90;99.90
41630;DHT22;27322;49.488;8.480;2023-04-01T00:48:04;11.90;99.90
41630;DHT22;27322;49.488;8.480;2023-04-01T00:50:33;11.90;99.90
41630;DHT22;27322;49.488;8.480;2023-04-01T00:53:00;11.90;99.90
41630;DHT22;27322;49.488;8.480;2023-04-01T00:55:29;11.90;99.90
41630;DHT22;27322;49.488;8.480;2023-04-01T00:57:57;11.90;99.90
41630;DHT22;27322;49.488;8.480;2023-04-01T01:00:23;12.00;99.90
41630;DHT22;27322;49.488;8.480;2023-04-01T01:02:50;11.90;99.90
41630;DHT22;27322;49.488;8.480;2023-04-01T01:05:17;11.90;99.90
41630;DHT22;27322;49.488;8.480;2023-04-01T01:08:01;11.90;99.90
41630;DHT22;27322;49.488;8.480;2023-04-01T01:10:33;11.90;99.90
41630;DHT22;27322;49.488;8.480;2023-04-01T01:15:54;12.00;99.90
41630;DHT22;27322;49.488;8.480;2023-04-01T01:37:52;12.00;99.90
41630;DHT22;27322;49.488;8.480;2023-04-01T01:40:20;12.00;99.90
41630;DHT22;27322;49.488;8.480;2023-04-01T01:42:50;12.00;99.90
41630;DHT22;27322;49.488;8.480;2023-04-01T01:45:19;11.90;99.90
41630;DHT22;27322;49.488;8.480;2023-04-01T01:47:48;11.90;99.90
41630;DHT22;27322;49.488;8.480;2023-04-01T01:50:15;12.00;99.90
41630;DHT22;27322;49.488;8.480;2023-04-01T01:52:41;11.90;99.90
41630;DHT22;27322;49.488;8.480;2023-04-01T01:55:30;12.00;99.90
41630;DHT22;27322;49.488;8.480;2023-04-01T01:58:04;12.00;99.90
41630;DHT22;27322;49.488;8.480;2023-04-01T02:00:30;12.00;99.90
41630;DHT22;27322;49.488;8.480;2023-04-01T02:02:58;12.00;99.90
41630;DHT22;27322;49.488;8.480;2023-04-01T02:05:26;11.90;99.90
41630;DHT22;27322;49.488;8.480;2023-04-01T02:08:05;12.00;99.90
41630;DHT22;27322;49.488;8.480;2023-04-01T02:10:35;12.00;99.90
41630;DHT22;27322;49.488;8.480;2023-04-01T02:13:07;12.00;99.90
41630;DHT22;27322;49.488;8.480;2023-04-01T02:15:40;12.00;99.90
41630;DHT22;27322;49.488;8.480;2023-04-01T02:18:06;12.00;99.90
41630;DHT22;27322;49.488;8.480;2023-04-01T02:20:33;12.00;99.90
41630;DHT22;27322;49.488;8.480;2023-04-01T02:23:00;12.00;99.90
41630;DHT22;27322;49.488;8.480;2023-04-01T02:25:29;12.00;99.90
41630;DHT22;27322;49.488;8.480;2023-04-01T02:27:57;12.00;99.90
41630;DHT22;27322;49.488;8.480;2023-04-01T02:30:25;12.00;99.90
41630;DHT22;27322;49.488;8.480;2023-04-01T02:32:53;12.00;99.90
41630;DHT22;27322;49.488;8.480;2023-04-01T02:35:19;12.00;99.90
41630;DHT22;27322;49.488;8.480;2023-04-01T02:37:46;12.00;99.90
41630;DHT22;27322;49.488;8.480;2023-04-01T02:40:15;12.00;99.90
41630;DHT22;27322;49.488;8.480;2023-04-01T02:42:41;12.00;99.90
41630;DHT22;27322;49.488;8.480;2023-04-01T02:45:08;12.00;99.90
41630;DHT22;27322;49.488;8.480;2023-04-01T02:47:34;12.00;99.90
41630;DHT22;27322;49.488;8.480;2023-04-01T02:50:00;12.00;99.90
41630;DHT22;27322;49.488;8.480;2023-04-01T02:52:26;12.00;99.90
41630;DHT22;27322;49.488;8.480;2023-04-01T02:54:52;12.00;99.90
41630;DHT22;27322;49.488;8.480;2023-04-01T02:57:18;12.00;99.90
41630;DHT22;27322;49.488;8.480;2023-04-01T02:59:44;11.90;99.90
41630;DHT22;27322;49.488;8.480;2023-04-01T03:02:09;12.00;99.90
41630;DHT22;27322;49.488;8.480;2023-04-01T03:04:35;12.00;99.90
41630;DHT22;27322;49.488;8.480;2023-04-01T03:07:01;11.90;99.90
41630;DHT22;27322;49.488;8.480;2023-04-01T03:09:27;11.90;99.90
41630;DHT22;27322;49.488;8.480;2023-04-01T03:11:54;11.90;99.90
41630;DHT22;27322;49.488;8.480;2023-04-01T03:14:20;11.90;99.90
41630;DHT22;27322;49.488;8.480;2023-04-01T03:16:46;11.90;99.90
41630;DHT22;27322;49.488;8.480;2023-04-01T03:19:11;11.90;99.90
41630;DHT22;27322;49.488;8.480;2023-04-01T03:21:37;11.90;99.90
41630;DHT22;27322;49.488;8.480;2023-04-01T03:24:03;11.90;99.90
41630;DHT22;27322;49.488;8.480;2023-04-01T03:26:29;11.80;99.90
41630;DHT22;27322;49.488;8.480;2023-04-01T03:28:55;11.80;99.90
41630;DHT22;27322;49.488;8.480;2023-04-01T03:31:22;11.80;99.90
41630;DHT22;27322;49.488;8.480;2023-04-01T03:33:47;11.80;99.90
41630;DHT22;27322;49.488;8.480;2023-04-01T03:36:13;11.80;99.90
41630;DHT22;27322;49.488;8.480;2023-04-01T03:38:43;11.80;99.90
41630;DHT22;27322;49.488;8.480;2023-04-01T03:41:16;11.80;99.90
41630;DHT22;27322;49.488;8.480;2023-04-01T03:43:43;11.80;99.90
41630;DHT22;27322;49.488;8.480;2023-04-01T03:46:09;11.80;99.90
41630;DHT22;27322;49.488;8.480;2023-04-01T03:48:34;11.80;99.90
41630;DHT22;27322;49.488;8.480;2023-04-01T03:51:00;11.80;99.90
41630;DHT22;27322;49.488;8.480;2023-04-01T03:53:26;11.80;99.90
41630;DHT22;27322;49.488;8.480;2023-04-01T03:55:52;11.80;99.90
41630;DHT22;27322;49.488;8.480;2023-04-01T03:58:18;11.80;99.90
41630;DHT22;27322;49.488;8.480;2023-04-01T04:00:44;11.80;99.90
41630;DHT22;27322;49.488;8.480;2023-04-01T04:03:10;11.70;99.90
41630;DHT22;27322;49.488;8.480;2023-04-01T04:05:36;11.70;99.90
41630;DHT22;27322;49.488;8.480;2023-04-01T04:08:02;11.70;99.90
41630;DHT22;27322;49.488;8.480;2023-04-01T04:10:27;11.70;99.90
41630;DHT22;27322;49.488;8.480;2023-04-01T04:12:54;11.70;99.90
41630;DHT22;27322;49.488;8.480;2023-04-01T04:15:20;11.70;99.90
41630;DHT22;27322;49.488;8.480;2023-04-01T04:17:46;11.70;99.90
41630;DHT22;27322;49.488;8.480;2023-04-01T04:20:11;11.70;99.90
41630;DHT22;27322;49.488;8.480;2023-04-01T04:22:37;11.70;99.90
41630;DHT22;27322;49.488;8.480;2023-04-01T04:25:03;11.80;99.90
41630;DHT22;27322;49.488;8.480;2023-04-01T04:27:29;11.80;99.90
41630;DHT22;27322;49.488;8.480;2023-04-01T04:29:55;11.70;99.90
41630;DHT22;27322;49.488;8.480;2023-04-01T04:32:20;11.70;99.90
41630;DHT22;27322;49.488;8.480;2023-04-01T04:34:46;11.70;99.90
41630;DHT22;27322;49.488;8.480;2023-04-01T04:37:11;11.70;99.90
41630;DHT22;27322;49.488;8.480;2023-04-01T04:39:37;11.70;99.90
41630;DHT22;27322;49.488;8.480;2023-04-01T04:42:03;11.80;99.90
41630;DHT22;27322;49.488;8.480;2023-04-01T04:44:28;11.70;99.90
41630;DHT22;27322;49.488;8.480;2023-04-01T04:46:54;11.80;99.90
41630;DHT22;27322;49.488;8.480;2023-04-01T04:49:20;11.70;99.90
41630;DHT22;27322;49.488;8.480;2023-04-01T04:51:46;11.70;99.90
41630;DHT22;27322;49.488;8.480;2023-04-01T04:54:11;11.70;99.90
41630;DHT22;27322;49.488;8.480;2023-04-01T04:56:37;11.70;99.90
41630;DHT22;27322;49.488;8.480;2023-04-01T04:59:03;11.70;99.90
41630;DHT22;27322;49.488;8.480;2023-04-01T05:01:28;11.70;99.90
41630;DHT22;27322;49.488;8.480;2023-04-01T05:03:54;11.70;99.90
41630;DHT22;27322;49.488;8.480;2023-04-01T05:06:20;11.70;99.90
41630;DHT22;27322;49.488;8.480;2023-04-01T05:08:46;11.70;99.90
41630;DHT22;27322;49.488;8.480;2023-04-01T05:11:17;11.70;99.90
41630;DHT22;27322;49.488;8.480;2023-04-01T05:13:44;11.60;99.90
41630;DHT22;27322;49.488;8.480;2023-04-01T05:16:12;11.60;99.90
41630;DHT22;27322;49.488;8.480;2023-04-01T05:18:38;11.60;99.90
41630;DHT22;27322;49.488;8.480;2023-04-01T05:21:06;11.60;99.90
41630;DHT22;27322;49.488;8.480;2023-04-01T05:23:32;11.60;99.90
41630;DHT22;27322;49.488;8.480;2023-04-01T05:25:58;11.60;99.90
41630;DHT22;27322;49.488;8.480;2023-04-01T05:28:24;11.60;99.90
41630;DHT22;27322;49.488;8.480;2023-04-01T05:30:50;11.50;99.90
41630;DHT22;27322;49.488;8.480;2023-04-01T05:33:16;11.60;99.90
41630;DHT22;27322;49.488;8.480;2023-04-01T05:35:41;11.50;99.90
41630;DHT22;27322;49.488;8.480;2023-04-01T05:38:07;11.50;99.90
41630;DHT22;27322;49.488;8.480;2023-04-01T05:40:33;11.50;99.90
41630;DHT22;27322;49.488;8.480;2023-04-01T05:42:59;11.60;99.90
41630;DHT22;27322;49.488;8.480;2023-04-01T05:45:25;11.60;99.90
41630;DHT22;27322;49.488;8.480;2023-04-01T05:47:51;11.60;99.90
41630;DHT22;27322;49.488;8.480;2023-04-01T05:50:16;11.60;99.90
41630;DHT22;27322;49.488;8.480;2023-04-01T05:52:42;11.60;99.90
41630;DHT22;27322;49.488;8.480;2023-04-01T05:55:08;11.60;99.90
41630;DHT22;27322;49.488;8.480;2023-04-01T05:57:34;11.60;99.90
41630;DHT22;27322;49.488;8.480;2023-04-01T06:00:00;11.60;99.90
41630;DHT22;27322;49.488;8.480;2023-04-01T06:02:25;11.60;99.90
41630;DHT22;27322;49.488;8.480;2023-04-01T06:05:09;11.60;99.90
41630;DHT22;27322;49.488;8.480;2023-04-01T06:07:36;11.60;99.90
41630;DHT22;27322;49.488;8.480;2023-04-01T06:10:13;11.60;99.90
41630;DHT22;27322;49.488;8.480;2023-04-01T06:13:21;11.60;99.90
41630;DHT22;27322;49.488;8.480;2023-04-01T06:16:04;11.60;99.90
41630;DHT22;27322;49.488;8.480;2023-04-01T06:18:56;11.60;99.90
41630;DHT22;27322;49.488;8.480;2023-04-01T06:27:07;11.60;99.90
41630;DHT22;27322;49.488;8.480;2023-04-01T06:37:43;11.60;99.90
41630;DHT22;27322;49.488;8.480;2023-04-01T06:40:34;11.60;99.90
41630;DHT22;27322;49.488;8.480;2023-04-01T06:51:54;11.60;99.90
41630;DHT22;27322;49.488;8.480;2023-04-01T06:54:38;11.60;99.90
41630;DHT22;27322;49.488;8.480;2023-04-01T06:59:47;11.60;99.90
41630;DHT22;27322;49.488;8.480;2023-04-01T07:02:34;11.50;99.90
41630;DHT22;27322;49.488;8.480;2023-04-01T07:05:02;11.60;99.90
41630;DHT22;27322;49.488;8.480;2023-04-01T07:07:43;11.60;99.90
41630;DHT22;27322;49.488;8.480;2023-04-01T07:10:19;11.60;99.90
41630;DHT22;27322;49.488;8.480;2023-04-01T07:12:51;11.60;99.90
41630;DHT22;27322;49.488;8.480;2023-04-01T07:15:24;11.60;99.90
41630;DHT22;27322;49.488;8.480;2023-04-01T07:18:04;11.60;99.90
41630;DHT22;27322;49.488;8.480;2023-04-01T07:20:37;11.60;99.90
41630;DHT22;27322;49.488;8.480;2023-04-01T07:23:06;11.60;99.90
41630;DHT22;27322;49.488;8.480;2023-04-01T07:25:43;11.60;99.90
41630;DHT22;27322;49.488;8.480;2023-04-01T07:28:16;11.60;99.90
41630;DHT22;27322;49.488;8.480;2023-04-01T07:31:18;11.60;99.90
41630;DHT22;27322;49.488;8.480;2023-04-01T07:36:58;11.60;99.90
41630;DHT22;27322;49.488;8.480;2023-04-01T07:50:40;11.70;99.90
41630;DHT22;27322;49.488;8.480;2023-04-01T07:56:21;11.70;99.90
41630;DHT22;27322;49.488;8.480;2023-04-01T07:59:15;11.70;99.90
41630;DHT22;27322;49.488;8.480;2023-04-01T08:07:25;11.80;99.90
41630;DHT22;27322;49.488;8.480;2023-04-01T08:23:00;11.80;99.90
41630;DHT22;27322;49.488;8.480;2023-04-01T08:25:29;11.90;99.90
41630;DHT22;27322;49.488;8.480;2023-04-01T08:31:04;11.90;99.90
41630;DHT22;27322;49.488;8.480;2023-04-01T08:33:31;11.90;99.90
41630;DHT22;27322;49.488;8.480;2023-04-01T08:35:59;11.90;99.90
41630;DHT22;27322;49.488;8.480;2023-04-01T08:39:02;11.90;99.90
41630;DHT22;27322;49.488;8.480;2023-04-01T08:50:40;12.00;99.90
41630;DHT22;27322;49.488;8.480;2023-04-01T08:56:25;12.00;99.90
41630;DHT22;27322;49.488;8.480;2023-04-01T09:15:37;11.90;99.90
41630;DHT22;27322;49.488;8.480;2023-04-01T09:33:38;11.90;99.90
41630;DHT22;27322;49.488;8.480;2023-04-01T10:17:56;12.10;99.90
41630;DHT22;27322;49.488;8.480;2023-04-01T10:50:32;12.50;99.90
41630;DHT22;27322;49.488;8.480;2023-04-01T11:02:22;12.50;99.90
41630;DHT22;27322;49.488;8.480;2023-04-01T11:05:25;12.50;99.90
41630;DHT22;27322;49.488;8.480;2023-04-01T11:22:14;12.60;99.90
41630;DHT22;27322;49.488;8.480;2023-04-01T11:27:30;12.60;99.90
41630;DHT22;27322;49.488;8.480;2023-04-01T11:46:52;12.70;99.90
41630;DHT22;27322;49.488;8.480;2023-04-01T11:57:59;12.70;99.90
41630;DHT22;27322;49.488;8.480;2023-04-01T12:00:55;12.70;99.90
41630;DHT22;27322;49.488;8.480;2023-04-01T12:22:49;12.80;99.90
41630;DHT22;27322;49.488;8.480;2023-04-01T12:31:23;12.90;99.90
41630;DHT22;27322;49.488;8.480;2023-04-01T12:37:06;12.90;99.90
41630;DHT22;27322;49.488;8.480;2023-04-01T12:50:22;13.00;99.90
41630;DHT22;27322;49.488;8.480;2023-04-01T12:53:00;13.00;99.90
41630;DHT22;27322;49.488;8.480;2023-04-01T12:55:43;13.00;99.90
41630;DHT22;27322;49.488;8.480;2023-04-01T13:04:26;13.10;99.90
41630;DHT22;27322;49.488;8.480;2023-04-01T13:17:38;13.20;99.90
41630;DHT22;27322;49.488;8.480;2023-04-01T13:25:27;13.20;99.90
41630;DHT22;27322;49.488;8.480;2023-04-01T13:28:08;13.20;99.90
41630;DHT22;27322;49.488;8.480;2023-04-01T13:33:43;13.20;99.90
41630;DHT22;27322;49.488;8.480;2023-04-01T13:44:41;13.20;99.90
41630;DHT22;27322;49.488;8.480;2023-04-01T13:48:12;13.20;99.90
41630;DHT22;27322;49.488;8.480;2023-04-01T14:06:49;13.20;99.90
41630;DHT22;27322;49.488;8.480;2023-04-01T14:22:56;13.20;99.90
41630;DHT22;27322;49.488;8.480;2023-04-01T14:36:41;13.20;99.90
41630;DHT22;27322;49.488;8.480;2023-04-01T14:39:34;13.10;99.90
41630;DHT22;27322;49.488;8.480;2023-04-01T14:47:56;13.10;99.90
41630;DHT22;27322;49.488;8.480;2023-04-01T14:50:27;13.20;99.90
41630;DHT22;27322;49.488;8.480;2023-04-01T14:58:16;13.20;99.90
41630;DHT22;27322;49.488;8.480;2023-04-01T15:03:59;13.10;99.90
41630;DHT22;27322;49.488;8.480;2023-04-01T15:30:17;13.10;99.90
41630;DHT22;27322;49.488;8.480;2023-04-01T15:41:49;13.10;99.90
41630;DHT22;27322;49.488;8.480;2023-04-01T15:47:01;13.10;99.90
41630;DHT22;27322;49.488;8.480;2023-04-01T15:49:38;13.10;99.90
41630;DHT22;27322;49.488;8.480;2023-04-01T15:55:15;13.10;99.90
41630;DHT22;27322;49.488;8.480;2023-04-01T16:00:31;13.10;99.90
41630;DHT22;27322;49.488;8.480;2023-04-01T16:22:17;13.10;99.90
41630;DHT22;27322;49.488;8.480;2023-04-01T16:27:51;13.10;99.90
41630;DHT22;27322;49.488;8.480;2023-04-01T16:30:44;13.10;99.90
41630;DHT22;27322;49.488;8.480;2023-04-01T16:33:21;13.10;99.90
41630;DHT22;27322;49.488;8.480;2023-04-01T16:36:28;13.10;99.90
41630;DHT22;27322;49.488;8.480;2023-04-01T16:39:07;13.10;99.90
41630;DHT22;27322;49.488;8.480;2023-04-01T16:41:38;13.10;99.90
41630;DHT22;27322;49.488;8.480;2023-04-01T16:44:25;13.10;99.90
41630;DHT22;27322;49.488;8.480;2023-04-01T16:46:56;13.10;99.90
41630;DHT22;27322;49.488;8.480;2023-04-01T16:49:42;13.10;99.90
41630;DHT22;27322;49.488;8.480;2023-04-01T16:57:21;13.00;99.90
41630;DHT22;27322;49.488;8.480;2023-04-01T17:00:26;13.10;99.90
41630;DHT22;27322;49.488;8.480;2023-04-01T17:08:22;13.00;99.90
41630;DHT22;27322;49.488;8.480;2023-04-01T17:11:00;13.00;99.90
41630;DHT22;27322;49.488;8.480;2023-04-01T17:13:40;13.00;99.90
41630;DHT22;27322;49.488;8.480;2023-04-01T17:30:23;13.00;99.90
41630;DHT22;27322;49.488;8.480;2023-04-01T17:35:35;12.90;99.90
41630;DHT22;27322;49.488;8.480;2023-04-01T17:41:16;12.90;99.90
41630;DHT22;27322;49.488;8.480;2023-04-01T17:50:02;12.90;99.90
41630;DHT22;27322;49.488;8.480;2023-04-01T17:52:42;12.90;99.90
41630;DHT22;27322;49.488;8.480;2023-04-01T17:58:38;12.90;99.90
41630;DHT22;27322;49.488;8.480;2023-04-01T18:09:28;12.90;99.90
41630;DHT22;27322;49.488;8.480;2023-04-01T18:14:45;12.90;99.90
41630;DHT22;27322;49.488;8.480;2023-04-01T18:23:24;12.80;99.90
41630;DHT22;27322;49.488;8.480;2023-04-01T18:25:40;12.80;99.90
41630;DHT22;27322;49.488;8.480;2023-04-01T18:30:44;12.80;99.90
41630;DHT22;27322;49.488;8.480;2023-04-01T18:41:35;12.80;99.90
41630;DHT22;27322;49.488;8.480;2023-04-01T18:44:16;12.70;99.90
41630;DHT22;27322;49.488;8.480;2023-04-01T18:50:06;12.70;99.90
41630;DHT22;27322;49.488;8.480;2023-04-01T18:52:40;12.70;99.90
41630;DHT22;27322;49.488;8.480;2023-04-01T18:57:51;12.60;99.90
41630;DHT22;27322;49.488;8.480;2023-04-01T19:00:32;12.60;99.90
41630;DHT22;27322;49.488;8.480;2023-04-01T19:03:09;12.70;99.90
41630;DHT22;27322;49.488;8.480;2023-04-01T19:05:39;12.60;99.90
41630;DHT22;27322;49.488;8.480;2023-04-01T19:13:54;12.60;99.90
41630;DHT22;27322;49.488;8.480;2023-04-01T19:37:43;12.60;99.90
41630;DHT22;27322;49.488;8.480;2023-04-01T19:42:56;12.60;99.90
41630;DHT22;27322;49.488;8.480;2023-04-01T19:51:11;12.60;99.90
41630;DHT22;27322;49.488;8.480;2023-04-01T19:54:03;12.50;99.90
41630;DHT22;27322;49.488;8.480;2023-04-01T20:02:50;12.50;99.90
41630;DHT22;27322;49.488;8.480;2023-04-01T20:07:55;12.50;99.90
41630;DHT22;27322;49.488;8.480;2023-04-01T20:10:37;12.40;99.90
41630;DHT22;27322;49.488;8.480;2023-04-01T20:13:54;12.40;99.90
41630;DHT22;27322;49.488;8.480;2023-04-01T20:16:04;12.40;99.90
41630;DHT22;27322;49.488;8.480;2023-04-01T20:24:29;12.40;99.90
41630;DHT22;27322;49.488;8.480;2023-04-01T20:41:23;12.40;99.90
41630;DHT22;27322;49.488;8.480;2023-04-01T20:49:26;12.40;99.90
41630;DHT22;27322;49.488;8.480;2023-04-01T20:52:17;12.40;99.90
41630;DHT22;27322;49.488;8.480;2023-04-01T20:54:56;12.40;99.90
41630;DHT22;27322;49.488;8.480;2023-04-01T20:57:36;12.40;99.90
41630;DHT22;27322;49.488;8.480;2023-04-01T21:00:37;12.40;99.90
41630;DHT22;27322;49.488;8.480;2023-04-01T21:03:28;12.40;99.90
41630;DHT22;27322;49.488;8.480;2023-04-01T21:06:16;12.40;99.90
41630;DHT22;27322;49.488;8.480;2023-04-01T21:11:41;12.40;99.90
41630;DHT22;27322;49.488;8.480;2023-04-01T21:19:38;12.30;99.90
41630;DHT22;27322;49.488;8.480;2023-04-01T21:22:28;12.30;99.90
41630;DHT22;27322;49.488;8.480;2023-04-01T21:30:52;12.20;99.90
41630;DHT22;27322;49.488;8.480;2023-04-01T21:39:46;12.20;99.90
41630;DHT22;27322;49.488;8.480;2023-04-01T22:05:58;12.10;99.90
41630;DHT22;27322;49.488;8.480;2023-04-01T22:14:20;12.10;99.90
41630;DHT22;27322;49.488;8.480;2023-04-01T22:19:41;12.10;99.90
41630;DHT22;27322;49.488;8.480;2023-04-01T22:22:14;12.10;99.90
41630;DHT22;27322;49.488;8.480;2023-04-01T22:33:07;12.10;99.90
41630;DHT22;27322;49.488;8.480;2023-04-01T22:43:39;12.10;99.90
41630;DHT22;27322;49.488;8.480;2023-04-01T22:49:22;12.10;99.90
41630;DHT22;27322;49.488;8.480;2023-04-01T22:51:54;12.00;99.90
41630;DHT22;27322;49.488;8.480;2023-04-01T22:56:53;12.10;99.90
41630;DHT22;27322;49.488;8.480;2023-04-01T22:59:44;12.00;99.90
41630;DHT22;27322;49.488;8.480;2023-04-01T23:02:16;12.00;99.90
41630;DHT22;27322;49.488;8.480;2023-04-01T23:04:47;12.00;99.90
41630;DHT22;27322;49.488;8.480;2023-04-01T23:10:41;12.00;99.90
41630;DHT22;27322;49.488;8.480;2023-04-01T23:13:10;12.00;99.90
41630;DHT22;27322;49.488;8.480;2023-04-01T23:15:37;12.00;99.90
41630;DHT22;27322;49.488;8.480;2023-04-01T23:28:41;11.90;99.90
41630;DHT22;27322;49.488;8.480;2023-04-01T23:39:25;11.70;99.90
41630;DHT22;27322;49.488;8.480;2023-04-01T23:41:53;11.70;99.90
41630;DHT22;27322;49.488;8.480;2023-04-01T23:44:20;11.60;99.90
41630;DHT22;27322;49.488;8.480;2023-04-01T23:46:47;11.60;99.90
41630;DHT22;27322;49.488;8.480;2023-04-01T23:49:40;11.60;99.90
41630;DHT22;27322;49.488;8.480;2023-04-01T23:52:24;11.50;99.90
41630;DHT22;27322;49.488;8.480;2023-04-01T23:55:27;11.50;99.90
